createdAt,value
2023-02-24T00:03:04.058Z,100.00
2023-02-24T00:08:06.358Z,100.00
2023-02-24T00:13:07.827Z,100.00
2023-02-24T00:18:09.508Z,100.00
2023-02-24T00:23:11.081Z,100.00
2023-02-24T00:28:12.631Z,100.00
2023-02-24T00:33:14.084Z,100.00
2023-02-24T00:38:16.092Z,100.00
2023-02-24T00:43:17.572Z,100.00
2023-02-24T00:48:19.125Z,100.00
2023-02-24T00:53:20.919Z,100.00
2023-02-24T00:58:22.769Z,100.00
2023-02-24T01:03:24.361Z,100.00
2023-02-24T01:08:25.960Z,100.00
2023-02-24T01:13:27.744Z,100.00
2023-02-24T01:18:29.339Z,100.00
2023-02-24T01:23:30.950Z,100.00
2023-02-24T01:28:32.556Z,100.00
2023-02-24T01:33:34.806Z,100.00
2023-02-24T01:38:36.461Z,100.00
2023-02-24T01:44:01.298Z,100.00
2023-02-24T01:49:28.595Z,100.00
2023-02-24T01:54:35.063Z,100.00
2023-02-24T01:59:37.342Z,100.00
2023-02-24T02:04:50.697Z,100.00
2023-02-24T02:09:53.313Z,100.00
2023-02-24T02:14:56.899Z,100.00
2023-02-24T02:20:20.210Z,100.00
2023-02-24T02:25:30.651Z,100.00
2023-02-24T02:30:50.427Z,100.00
2023-02-24T02:36:12.603Z,100.00
2023-02-24T02:41:40.949Z,100.00
2023-02-24T02:46:53.287Z,100.00
2023-02-24T02:51:58.877Z,100.00
2023-02-24T02:57:21.635Z,100.00
2023-02-24T03:02:28.368Z,100.00
2023-02-24T03:07:34.302Z,100.00
2023-02-24T03:12:38.360Z,100.00
2023-02-24T03:17:43.986Z,100.00
2023-02-24T03:23:14.482Z,100.00
2023-02-24T03:28:22.590Z,100.00
2023-02-24T03:33:39.554Z,100.00
2023-02-24T03:38:42.068Z,100.00
2023-02-24T03:43:47.095Z,100.00
2023-02-24T03:48:57.560Z,100.00
2023-02-24T03:54:39.974Z,100.00
2023-02-24T03:59:55.328Z,100.00
2023-02-24T04:05:12.027Z,100.00
2023-02-24T04:10:44.236Z,100.00
2023-02-24T04:15:53.045Z,100.00
2023-02-24T04:20:59.852Z,100.00
2023-02-24T04:26:02.461Z,100.00
2023-02-24T04:31:07.889Z,100.00
2023-02-24T04:36:09.909Z,100.00
2023-02-24T04:41:12.643Z,100.00
2023-02-24T04:46:14.347Z,100.00
2023-02-24T04:51:15.952Z,100.00
2023-02-24T04:56:17.384Z,100.00
2023-02-24T05:01:19.199Z,100.00
2023-02-24T05:06:20.792Z,100.00
2023-02-24T05:11:22.580Z,100.00
2023-02-24T05:16:24.614Z,100.00
2023-02-24T05:21:26.124Z,100.00
2023-02-24T05:26:27.698Z,100.00
2023-02-24T05:31:30.809Z,100.00
2023-02-24T05:36:36.982Z,100.00
2023-02-24T05:41:41.446Z,100.00
2023-02-24T05:46:46.170Z,100.00
2023-02-24T05:51:47.809Z,100.00
2023-02-24T05:56:49.739Z,100.00
2023-02-24T06:01:51.336Z,100.00
2023-02-24T06:06:52.794Z,100.00
2023-02-24T06:11:54.453Z,100.00
2023-02-24T06:16:56.017Z,100.00
2023-02-24T06:21:58.901Z,100.00
2023-02-24T06:27:00.336Z,100.00
2023-02-24T06:32:02.268Z,100.00
2023-02-24T06:37:05.368Z,100.00
2023-02-24T06:42:07.536Z,100.00
2023-02-24T06:47:12.515Z,100.00
2023-02-24T06:52:14.093Z,100.00
2023-02-24T06:57:15.719Z,100.00
2023-02-24T07:02:17.228Z,100.00
2023-02-24T07:07:18.676Z,100.00
2023-02-24T07:12:20.125Z,100.00
2023-02-24T07:17:21.629Z,100.00
2023-02-24T07:22:23.090Z,100.00
2023-02-24T07:27:24.585Z,100.00
2023-02-24T07:32:26.166Z,100.00
2023-02-24T07:37:27.716Z,100.00
2023-02-24T07:42:29.747Z,100.00
2023-02-24T07:47:32.723Z,100.00
2023-02-24T07:52:34.243Z,100.00
2023-02-24T07:57:36.407Z,100.00
2023-02-24T08:02:37.962Z,100.00
2023-02-24T08:07:39.684Z,100.00
2023-02-24T08:12:41.927Z,100.00
2023-02-24T08:17:44.283Z,100.00
2023-02-24T08:22:46.439Z,100.00
2023-02-24T08:28:05.168Z,100.00
2023-02-24T08:33:12.549Z,100.00
2023-02-24T08:38:18.403Z,100.00
2023-02-24T08:43:29.364Z,100.00
2023-02-24T08:48:37.877Z,100.00
2023-02-24T08:53:39.525Z,100.00
2023-02-24T08:58:43.891Z,100.00
2023-02-24T09:04:00.828Z,100.00
2023-02-24T09:09:04.876Z,100.00
2023-02-24T09:14:09.243Z,100.00
2023-02-24T09:19:14.713Z,100.00
2023-02-24T09:24:18.146Z,100.00
2023-02-24T09:29:19.826Z,100.00
2023-02-24T09:34:21.371Z,100.00
2023-02-24T09:39:26.536Z,100.00
2023-02-24T09:44:44.958Z,100.00
2023-02-24T09:49:59.572Z,100.00
2023-02-24T09:55:17.848Z,100.00
2023-02-24T10:00:22.784Z,100.00
2023-02-24T10:05:55.992Z,100.00
2023-02-24T10:10:57.864Z,100.00
2023-02-24T10:16:07.516Z,100.00
2023-02-24T10:21:29.503Z,100.00
2023-02-24T10:26:45.455Z,99.60
2023-02-24T10:31:52.052Z,98.12
2023-02-24T10:37:27.523Z,98.49
2023-02-24T10:50:24.836Z,98.60
2023-02-24T11:14:43.581Z,95.45
2023-02-24T11:20:33.631Z,92.40
2023-02-24T11:25:49.356Z,93.28
2023-02-24T11:31:42.059Z,93.94
2023-02-24T11:37:08.804Z,95.47
2023-02-24T11:42:23.481Z,94.70
2023-02-24T11:47:50.380Z,94.57
2023-02-24T11:53:03.164Z,94.91
2023-02-24T11:58:23.246Z,92.68
2023-02-24T12:03:43.068Z,93.38
2023-02-24T12:08:54.378Z,93.43
2023-02-24T12:14:26.893Z,91.35
2023-02-24T12:20:06.194Z,95.33
2023-02-24T12:25:13.384Z,90.73
2023-02-24T12:30:46.313Z,88.18
2023-02-24T12:36:15.048Z,89.59
2023-02-24T12:41:37.319Z,88.80
2023-02-24T12:46:45.804Z,88.36
2023-02-24T12:52:50.029Z,85.20
2023-02-24T12:58:20.009Z,86.46
2023-02-24T13:03:40.007Z,87.42
2023-02-24T13:08:54.217Z,87.22
2023-02-24T13:14:22.666Z,85.21
2023-02-24T13:19:27.438Z,87.09
2023-02-24T13:24:29.206Z,90.48
2023-02-24T13:29:52.702Z,89.48
2023-02-24T13:34:57.044Z,87.10
2023-02-24T13:39:58.863Z,87.79
2023-02-24T13:45:10.190Z,87.49
2023-02-24T13:50:36.171Z,81.22
2023-02-24T13:55:56.852Z,73.40
2023-02-24T14:01:11.849Z,71.41
2023-02-24T14:06:24.752Z,73.16
2023-02-24T14:11:32.206Z,70.61
2023-02-24T14:16:38.290Z,70.82
2023-02-24T14:21:58.940Z,69.34
2023-02-24T14:27:19.665Z,70.22
2023-02-24T14:32:35.101Z,70.03
2023-02-24T14:37:40.146Z,69.80
2023-02-24T14:42:50.047Z,68.37
2023-02-24T14:47:54.288Z,72.62
2023-02-24T14:53:24.812Z,69.46
2023-02-24T14:58:37.363Z,68.95
2023-02-24T15:03:57.044Z,69.46
2023-02-24T15:09:13.658Z,69.92
2023-02-24T15:14:31.400Z,69.78
2023-02-24T15:19:41.648Z,70.48
2023-02-24T15:24:50.611Z,72.01
2023-02-24T15:30:03.113Z,69.30
2023-02-24T15:35:06.633Z,70.60
2023-02-24T15:40:24.398Z,71.92
2023-02-24T15:45:38.812Z,72.76
2023-02-24T15:50:40.376Z,67.97
2023-02-24T15:55:45.206Z,73.10
2023-02-24T16:00:46.936Z,76.97
2023-02-24T16:05:48.614Z,83.61
2023-02-24T16:10:53.052Z,85.80
2023-02-24T16:15:54.570Z,87.52
2023-02-24T16:20:56.121Z,92.04
2023-02-24T16:25:59.038Z,100.00
2023-02-24T16:31:02.115Z,100.00
2023-02-24T16:36:04.059Z,100.00
2023-02-24T16:41:05.772Z,100.00
2023-02-24T16:46:16.183Z,100.00
2023-02-24T16:51:17.835Z,100.00
2023-02-24T16:56:19.658Z,100.00
2023-02-24T17:01:21.837Z,100.00
2023-02-24T17:06:24.347Z,100.00
2023-02-24T17:11:28.076Z,100.00
2023-02-24T17:16:30.623Z,100.00
2023-02-24T17:21:32.562Z,100.00
2023-02-24T17:26:34.024Z,100.00
2023-02-24T17:31:35.764Z,100.00
2023-02-24T17:36:37.443Z,100.00
2023-02-24T17:41:38.900Z,100.00
2023-02-24T17:46:40.505Z,100.00
2023-02-24T17:51:42.004Z,100.00
2023-02-24T17:56:43.493Z,100.00
2023-02-24T18:01:45.288Z,100.00
2023-02-24T18:06:47.062Z,100.00
2023-02-24T18:11:48.559Z,100.00
2023-02-24T18:16:50.142Z,100.00
2023-02-24T18:21:51.762Z,100.00
2023-02-24T18:26:53.350Z,100.00
2023-02-24T18:31:55.821Z,100.00
2023-02-24T18:36:57.589Z,100.00
2023-02-24T18:41:59.646Z,100.00
2023-02-24T18:47:01.222Z,100.00
2023-02-24T18:52:03.126Z,100.00
2023-02-24T18:57:04.880Z,100.00
2023-02-24T19:02:06.526Z,100.00
2023-02-24T19:07:08.094Z,100.00
2023-02-24T19:12:09.862Z,100.00
2023-02-24T19:17:11.824Z,100.00
2023-02-24T19:22:13.548Z,100.00
2023-02-24T19:27:15.018Z,100.00
2023-02-24T19:32:16.694Z,100.00
2023-02-24T19:37:20.137Z,100.00
2023-02-24T19:42:23.526Z,100.00
2023-02-24T19:47:28.623Z,100.00
2023-02-24T19:52:32.018Z,100.00
2023-02-24T19:57:33.887Z,100.00
2023-02-24T20:02:37.549Z,100.00
2023-02-24T20:07:40.602Z,100.00
2023-02-24T20:12:42.496Z,100.00
2023-02-24T20:17:44.027Z,100.00
2023-02-24T20:22:50.098Z,100.00
2023-02-24T20:27:59.544Z,100.00
2023-02-24T20:33:20.228Z,100.00
2023-02-24T20:38:22.272Z,100.00
2023-02-24T20:43:24.249Z,100.00
2023-02-24T20:48:26.406Z,100.00
2023-02-24T20:53:28.220Z,100.00
2023-02-24T20:58:50.044Z,100.00
2023-02-24T21:03:52.108Z,100.00
2023-02-24T21:08:54.312Z,100.00
2023-02-24T21:13:56.669Z,100.00
2023-02-24T21:18:58.302Z,100.00
2023-02-24T21:23:59.822Z,100.00
2023-02-24T21:29:01.412Z,100.00
2023-02-24T21:34:02.961Z,100.00
2023-02-24T21:39:04.616Z,100.00
2023-02-24T21:44:06.375Z,100.00
2023-02-24T21:49:10.335Z,100.00
2023-02-24T21:54:12.361Z,100.00
2023-02-24T21:59:13.925Z,100.00
2023-02-24T22:04:18.084Z,100.00
2023-02-24T22:09:20.104Z,100.00
2023-02-24T22:14:22.199Z,100.00
2023-02-24T22:19:24.534Z,100.00
2023-02-24T22:24:26.059Z,100.00
2023-02-24T22:29:27.504Z,100.00
2023-02-24T22:34:28.945Z,100.00
2023-02-24T22:39:30.434Z,100.00
2023-02-24T22:44:32.051Z,100.00
2023-02-24T22:49:33.682Z,100.00
2023-02-24T22:54:35.300Z,100.00
2023-02-24T22:59:36.782Z,100.00
2023-02-24T23:04:38.873Z,100.00
2023-02-24T23:09:40.396Z,100.00
2023-02-24T23:14:42.200Z,100.00
2023-02-24T23:19:43.734Z,100.00
2023-02-24T23:24:45.327Z,100.00
2023-02-24T23:29:46.889Z,100.00
2023-02-24T23:34:48.604Z,100.00
2023-02-24T23:39:50.313Z,100.00
2023-02-24T23:44:51.874Z,100.00
2023-02-24T23:49:54.844Z,100.00
2023-02-24T23:54:56.346Z,100.00
2023-02-24T23:59:57.755Z,100.00
